sensor_id;sensor_type;location;lat;lon;timestamp;P1;durP1;ratioP1;P2;durP2;ratioP2
46729;SDS011;32476;50.002;11.854;2022-12-07T00:01:29;3.10;;;2.53;;
46729;SDS011;32476;50.002;11.854;2022-12-07T00:04:03;2.70;;;2.13;;
46729;SDS011;32476;50.002;11.854;2022-12-07T00:06:31;3.20;;;2.73;;
46729;SDS011;32476;50.002;11.854;2022-12-07T00:08:59;3.37;;;2.60;;
46729;SDS011;32476;50.002;11.854;2022-12-07T00:11:27;3.43;;;2.97;;
46729;SDS011;32476;50.002;11.854;2022-12-07T00:13:54;4.07;;;3.00;;
46729;SDS011;32476;50.002;11.854;2022-12-07T00:16:27;6.70;;;3.90;;
46729;SDS011;32476;50.002;11.854;2022-12-07T00:18:57;4.10;;;3.27;;
46729;SDS011;32476;50.002;11.854;2022-12-07T00:21:24;4.33;;;3.47;;
46729;SDS011;32476;50.002;11.854;2022-12-07T00:23:53;5.50;;;3.80;;
46729;SDS011;32476;50.002;11.854;2022-12-07T00:26:26;4.73;;;3.80;;
46729;SDS011;32476;50.002;11.854;2022-12-07T00:29:05;5.63;;;3.70;;
46729;SDS011;32476;50.002;11.854;2022-12-07T00:31:55;5.07;;;3.73;;
46729;SDS011;32476;50.002;11.854;2022-12-07T00:34:21;4.57;;;3.63;;
46729;SDS011;32476;50.002;11.854;2022-12-07T00:36:47;5.20;;;4.17;;
46729;SDS011;32476;50.002;11.854;2022-12-07T00:39:16;5.23;;;4.00;;
46729;SDS011;32476;50.002;11.854;2022-12-07T00:41:42;4.40;;;3.40;;
46729;SDS011;32476;50.002;11.854;2022-12-07T00:44:08;5.33;;;4.10;;
46729;SDS011;32476;50.002;11.854;2022-12-07T00:46:36;6.17;;;4.00;;
46729;SDS011;32476;50.002;11.854;2022-12-07T00:49:02;9.93;;;4.67;;
46729;SDS011;32476;50.002;11.854;2022-12-07T00:51:28;5.83;;;4.17;;
46729;SDS011;32476;50.002;11.854;2022-12-07T00:53:55;7.50;;;5.20;;
46729;SDS011;32476;50.002;11.854;2022-12-07T00:56:26;7.10;;;4.40;;
46729;SDS011;32476;50.002;11.854;2022-12-07T00:58:54;8.10;;;4.83;;
46729;SDS011;32476;50.002;11.854;2022-12-07T01:01:25;4.20;;;3.53;;
46729;SDS011;32476;50.002;11.854;2022-12-07T01:03:55;5.43;;;3.90;;
46729;SDS011;32476;50.002;11.854;2022-12-07T01:06:25;5.53;;;4.03;;
46729;SDS011;32476;50.002;11.854;2022-12-07T01:08:53;6.23;;;4.33;;
46729;SDS011;32476;50.002;11.854;2022-12-07T01:11:20;7.03;;;4.80;;
46729;SDS011;32476;50.002;11.854;2022-12-07T01:13:49;7.60;;;4.30;;
46729;SDS011;32476;50.002;11.854;2022-12-07T01:16:19;7.30;;;4.83;;
46729;SDS011;32476;50.002;11.854;2022-12-07T01:18:48;5.80;;;4.50;;
46729;SDS011;32476;50.002;11.854;2022-12-07T01:21:18;7.17;;;5.20;;
46729;SDS011;32476;50.002;11.854;2022-12-07T01:23:49;7.00;;;4.77;;
46729;SDS011;32476;50.002;11.854;2022-12-07T01:26:18;6.40;;;4.47;;
46729;SDS011;32476;50.002;11.854;2022-12-07T01:28:46;5.33;;;3.80;;
46729;SDS011;32476;50.002;11.854;2022-12-07T01:31:16;6.07;;;4.50;;
46729;SDS011;32476;50.002;11.854;2022-12-07T01:33:45;5.50;;;4.00;;
46729;SDS011;32476;50.002;11.854;2022-12-07T01:38:47;7.00;;;5.27;;
46729;SDS011;32476;50.002;11.854;2022-12-07T01:41:18;6.77;;;4.97;;
46729;SDS011;32476;50.002;11.854;2022-12-07T01:46:53;6.53;;;5.03;;
46729;SDS011;32476;50.002;11.854;2022-12-07T01:49:42;8.00;;;4.87;;
46729;SDS011;32476;50.002;11.854;2022-12-07T01:52:22;7.43;;;5.00;;
46729;SDS011;32476;50.002;11.854;2022-12-07T01:54:52;6.80;;;5.20;;
46729;SDS011;32476;50.002;11.854;2022-12-07T01:57:24;6.57;;;5.17;;
46729;SDS011;32476;50.002;11.854;2022-12-07T01:59:51;7.43;;;5.27;;
46729;SDS011;32476;50.002;11.854;2022-12-07T02:02:20;7.37;;;4.83;;
46729;SDS011;32476;50.002;11.854;2022-12-07T02:04:56;8.03;;;5.33;;
46729;SDS011;32476;50.002;11.854;2022-12-07T02:07:25;7.67;;;4.77;;
46729;SDS011;32476;50.002;11.854;2022-12-07T02:09:53;8.33;;;5.67;;
46729;SDS011;32476;50.002;11.854;2022-12-07T02:12:20;7.17;;;4.80;;
46729;SDS011;32476;50.002;11.854;2022-12-07T02:14:48;8.57;;;5.37;;
46729;SDS011;32476;50.002;11.854;2022-12-07T02:17:21;8.53;;;5.47;;
46729;SDS011;32476;50.002;11.854;2022-12-07T02:20:03;9.90;;;5.83;;
46729;SDS011;32476;50.002;11.854;2022-12-07T02:31:37;10.40;;;6.00;;
46729;SDS011;32476;50.002;11.854;2022-12-07T02:34:20;8.33;;;5.73;;
46729;SDS011;32476;50.002;11.854;2022-12-07T02:37:01;9.37;;;5.30;;
46729;SDS011;32476;50.002;11.854;2022-12-07T02:39:47;7.60;;;5.20;;
46729;SDS011;32476;50.002;11.854;2022-12-07T02:42:28;8.77;;;5.80;;
46729;SDS011;32476;50.002;11.854;2022-12-07T02:45:02;8.73;;;5.70;;
46729;SDS011;32476;50.002;11.854;2022-12-07T02:47:33;7.60;;;5.20;;
46729;SDS011;32476;50.002;11.854;2022-12-07T02:50:05;7.87;;;5.33;;
46729;SDS011;32476;50.002;11.854;2022-12-07T02:52:33;7.77;;;5.27;;
46729;SDS011;32476;50.002;11.854;2022-12-07T02:54:59;9.30;;;5.67;;
46729;SDS011;32476;50.002;11.854;2022-12-07T03:00:09;10.43;;;4.97;;
46729;SDS011;32476;50.002;11.854;2022-12-07T03:02:53;7.43;;;5.00;;
46729;SDS011;32476;50.002;11.854;2022-12-07T03:11:48;9.10;;;5.27;;
46729;SDS011;32476;50.002;11.854;2022-12-07T03:14:25;10.73;;;5.87;;
46729;SDS011;32476;50.002;11.854;2022-12-07T03:17:05;9.47;;;5.80;;
46729;SDS011;32476;50.002;11.854;2022-12-07T03:19:39;9.27;;;6.20;;
46729;SDS011;32476;50.002;11.854;2022-12-07T03:22:10;10.40;;;7.37;;
46729;SDS011;32476;50.002;11.854;2022-12-07T03:24:46;9.43;;;6.37;;
46729;SDS011;32476;50.002;11.854;2022-12-07T03:27:38;10.67;;;6.57;;
46729;SDS011;32476;50.002;11.854;2022-12-07T03:30:19;9.63;;;6.30;;
46729;SDS011;32476;50.002;11.854;2022-12-07T03:32:54;11.43;;;7.20;;
46729;SDS011;32476;50.002;11.854;2022-12-07T03:35:35;12.43;;;6.87;;
46729;SDS011;32476;50.002;11.854;2022-12-07T03:38:13;10.73;;;6.47;;
46729;SDS011;32476;50.002;11.854;2022-12-07T03:40:48;11.57;;;7.20;;
46729;SDS011;32476;50.002;11.854;2022-12-07T03:43:30;11.13;;;6.67;;
46729;SDS011;32476;50.002;11.854;2022-12-07T03:57:53;10.10;;;6.87;;
46729;SDS011;32476;50.002;11.854;2022-12-07T04:00:26;11.30;;;7.37;;
46729;SDS011;32476;50.002;11.854;2022-12-07T04:02:52;10.77;;;7.50;;
46729;SDS011;32476;50.002;11.854;2022-12-07T04:05:19;9.73;;;6.97;;
46729;SDS011;32476;50.002;11.854;2022-12-07T04:07:46;10.77;;;7.20;;
46729;SDS011;32476;50.002;11.854;2022-12-07T04:10:12;12.40;;;7.77;;
46729;SDS011;32476;50.002;11.854;2022-12-07T04:12:38;11.50;;;7.37;;
46729;SDS011;32476;50.002;11.854;2022-12-07T04:15:06;12.73;;;7.40;;
46729;SDS011;32476;50.002;11.854;2022-12-07T04:17:33;11.27;;;7.23;;
46729;SDS011;32476;50.002;11.854;2022-12-07T04:19:59;12.67;;;7.63;;
46729;SDS011;32476;50.002;11.854;2022-12-07T04:22:27;12.20;;;8.00;;
46729;SDS011;32476;50.002;11.854;2022-12-07T04:24:53;12.87;;;8.57;;
46729;SDS011;32476;50.002;11.854;2022-12-07T04:27:19;11.30;;;7.57;;
46729;SDS011;32476;50.002;11.854;2022-12-07T04:29:46;12.63;;;7.70;;
46729;SDS011;32476;50.002;11.854;2022-12-07T04:32:12;13.27;;;7.83;;
46729;SDS011;32476;50.002;11.854;2022-12-07T04:34:38;15.13;;;8.97;;
46729;SDS011;32476;50.002;11.854;2022-12-07T04:37:06;12.00;;;7.97;;
46729;SDS011;32476;50.002;11.854;2022-12-07T04:39:32;11.63;;;7.43;;
46729;SDS011;32476;50.002;11.854;2022-12-07T04:41:59;13.10;;;8.00;;
46729;SDS011;32476;50.002;11.854;2022-12-07T04:44:27;12.47;;;7.77;;
46729;SDS011;32476;50.002;11.854;2022-12-07T04:46:55;13.23;;;7.63;;
46729;SDS011;32476;50.002;11.854;2022-12-07T04:49:22;12.97;;;8.10;;
46729;SDS011;32476;50.002;11.854;2022-12-07T04:51:50;12.70;;;8.00;;
46729;SDS011;32476;50.002;11.854;2022-12-07T04:54:17;13.87;;;8.00;;
46729;SDS011;32476;50.002;11.854;2022-12-07T04:56:44;12.90;;;8.07;;
46729;SDS011;32476;50.002;11.854;2022-12-07T04:59:11;11.63;;;6.97;;
46729;SDS011;32476;50.002;11.854;2022-12-07T05:01:39;14.77;;;8.37;;
46729;SDS011;32476;50.002;11.854;2022-12-07T05:04:06;14.87;;;8.40;;
46729;SDS011;32476;50.002;11.854;2022-12-07T05:06:34;12.87;;;8.37;;
46729;SDS011;32476;50.002;11.854;2022-12-07T05:09:01;16.27;;;8.10;;
46729;SDS011;32476;50.002;11.854;2022-12-07T05:11:27;16.67;;;8.30;;
46729;SDS011;32476;50.002;11.854;2022-12-07T05:16:45;11.93;;;7.73;;
46729;SDS011;32476;50.002;11.854;2022-12-07T05:19:16;12.10;;;7.83;;
46729;SDS011;32476;50.002;11.854;2022-12-07T05:21:43;13.83;;;8.10;;
46729;SDS011;32476;50.002;11.854;2022-12-07T05:24:09;15.40;;;8.20;;
46729;SDS011;32476;50.002;11.854;2022-12-07T05:26:39;11.63;;;7.80;;
46729;SDS011;32476;50.002;11.854;2022-12-07T05:29:06;15.00;;;8.27;;
46729;SDS011;32476;50.002;11.854;2022-12-07T05:31:32;12.10;;;7.60;;
46729;SDS011;32476;50.002;11.854;2022-12-07T05:33:59;14.57;;;8.80;;
46729;SDS011;32476;50.002;11.854;2022-12-07T05:36:25;14.53;;;8.47;;
46729;SDS011;32476;50.002;11.854;2022-12-07T05:38:53;14.77;;;8.50;;
46729;SDS011;32476;50.002;11.854;2022-12-07T05:41:21;14.23;;;8.07;;
46729;SDS011;32476;50.002;11.854;2022-12-07T05:44:05;14.50;;;8.13;;
46729;SDS011;32476;50.002;11.854;2022-12-07T05:46:33;12.63;;;7.27;;
46729;SDS011;32476;50.002;11.854;2022-12-07T05:48:59;12.53;;;7.80;;
46729;SDS011;32476;50.002;11.854;2022-12-07T05:51:25;10.90;;;7.20;;
46729;SDS011;32476;50.002;11.854;2022-12-07T05:53:54;11.37;;;7.27;;
46729;SDS011;32476;50.002;11.854;2022-12-07T05:56:20;11.23;;;6.90;;
46729;SDS011;32476;50.002;11.854;2022-12-07T05:58:46;11.10;;;6.43;;
46729;SDS011;32476;50.002;11.854;2022-12-07T06:01:32;9.37;;;5.60;;
46729;SDS011;32476;50.002;11.854;2022-12-07T06:03:58;9.10;;;6.27;;
46729;SDS011;32476;50.002;11.854;2022-12-07T06:06:24;10.17;;;6.17;;
46729;SDS011;32476;50.002;11.854;2022-12-07T06:08:51;8.13;;;5.40;;
46729;SDS011;32476;50.002;11.854;2022-12-07T06:11:17;9.30;;;5.77;;
46729;SDS011;32476;50.002;11.854;2022-12-07T06:14:03;8.37;;;5.13;;
46729;SDS011;32476;50.002;11.854;2022-12-07T06:16:29;9.17;;;5.13;;
46729;SDS011;32476;50.002;11.854;2022-12-07T06:18:55;9.63;;;5.20;;
46729;SDS011;32476;50.002;11.854;2022-12-07T06:21:23;7.27;;;4.80;;
46729;SDS011;32476;50.002;11.854;2022-12-07T06:23:50;8.17;;;5.07;;
46729;SDS011;32476;50.002;11.854;2022-12-07T06:26:16;8.60;;;5.53;;
46729;SDS011;32476;50.002;11.854;2022-12-07T06:28:44;8.93;;;5.93;;
46729;SDS011;32476;50.002;11.854;2022-12-07T06:31:10;9.97;;;5.10;;
46729;SDS011;32476;50.002;11.854;2022-12-07T06:33:36;7.83;;;4.67;;
46729;SDS011;32476;50.002;11.854;2022-12-07T06:36:04;7.73;;;4.87;;
46729;SDS011;32476;50.002;11.854;2022-12-07T06:38:30;8.07;;;4.97;;
46729;SDS011;32476;50.002;11.854;2022-12-07T06:40:56;8.67;;;4.87;;
46729;SDS011;32476;50.002;11.854;2022-12-07T06:43:23;11.77;;;5.33;;
46729;SDS011;32476;50.002;11.854;2022-12-07T06:45:49;8.07;;;4.73;;
46729;SDS011;32476;50.002;11.854;2022-12-07T06:48:16;7.00;;;4.57;;
46729;SDS011;32476;50.002;11.854;2022-12-07T06:50:47;9.60;;;5.00;;
46729;SDS011;32476;50.002;11.854;2022-12-07T06:53:14;7.87;;;4.67;;
46729;SDS011;32476;50.002;11.854;2022-12-07T06:55:40;7.93;;;4.77;;
46729;SDS011;32476;50.002;11.854;2022-12-07T06:58:08;8.37;;;5.40;;
46729;SDS011;32476;50.002;11.854;2022-12-07T07:00:34;10.50;;;5.53;;
46729;SDS011;32476;50.002;11.854;2022-12-07T07:03:00;14.10;;;7.07;;
46729;SDS011;32476;50.002;11.854;2022-12-07T07:05:28;12.53;;;7.40;;
46729;SDS011;32476;50.002;11.854;2022-12-07T07:07:54;12.93;;;7.30;;
46729;SDS011;32476;50.002;11.854;2022-12-07T07:10:20;13.53;;;7.80;;
46729;SDS011;32476;50.002;11.854;2022-12-07T07:12:47;15.57;;;8.57;;
46729;SDS011;32476;50.002;11.854;2022-12-07T07:15:13;17.93;;;8.63;;
46729;SDS011;32476;50.002;11.854;2022-12-07T07:17:39;18.10;;;9.50;;
46729;SDS011;32476;50.002;11.854;2022-12-07T07:20:07;15.93;;;9.50;;
46729;SDS011;32476;50.002;11.854;2022-12-07T07:22:34;14.80;;;8.90;;
46729;SDS011;32476;50.002;11.854;2022-12-07T07:25:00;34.63;;;10.67;;
46729;SDS011;32476;50.002;11.854;2022-12-07T07:27:28;22.50;;;12.23;;
46729;SDS011;32476;50.002;11.854;2022-12-07T07:29:53;22.67;;;11.43;;
46729;SDS011;32476;50.002;11.854;2022-12-07T07:32:19;26.70;;;10.83;;
46729;SDS011;32476;50.002;11.854;2022-12-07T07:34:48;27.30;;;10.93;;
46729;SDS011;32476;50.002;11.854;2022-12-07T07:37:14;39.27;;;12.33;;
46729;SDS011;32476;50.002;11.854;2022-12-07T07:39:40;23.93;;;11.67;;
46729;SDS011;32476;50.002;11.854;2022-12-07T07:42:07;216.50;;;25.90;;
46729;SDS011;32476;50.002;11.854;2022-12-07T07:44:34;174.80;;;22.07;;
46729;SDS011;32476;50.002;11.854;2022-12-07T07:47:00;204.00;;;22.13;;
46729;SDS011;32476;50.002;11.854;2022-12-07T07:49:28;202.90;;;24.63;;
46729;SDS011;32476;50.002;11.854;2022-12-07T07:51:54;303.43;;;27.47;;
46729;SDS011;32476;50.002;11.854;2022-12-07T07:54:20;360.90;;;37.70;;
46729;SDS011;32476;50.002;11.854;2022-12-07T07:56:47;272.90;;;27.63;;
46729;SDS011;32476;50.002;11.854;2022-12-07T07:59:14;621.23;;;53.33;;
46729;SDS011;32476;50.002;11.854;2022-12-07T08:01:40;212.80;;;25.53;;
46729;SDS011;32476;50.002;11.854;2022-12-07T08:04:08;343.97;;;31.53;;
46729;SDS011;32476;50.002;11.854;2022-12-07T08:06:34;487.37;;;46.00;;
46729;SDS011;32476;50.002;11.854;2022-12-07T08:09:00;249.83;;;27.93;;
46729;SDS011;32476;50.002;11.854;2022-12-07T08:11:29;165.00;;;20.80;;
46729;SDS011;32476;50.002;11.854;2022-12-07T08:13:55;463.73;;;38.10;;
46729;SDS011;32476;50.002;11.854;2022-12-07T08:16:21;194.77;;;25.00;;
46729;SDS011;32476;50.002;11.854;2022-12-07T08:18:48;653.97;;;56.50;;
46729;SDS011;32476;50.002;11.854;2022-12-07T08:21:14;265.63;;;27.33;;
46729;SDS011;32476;50.002;11.854;2022-12-07T08:23:41;506.37;;;47.37;;
46729;SDS011;32476;50.002;11.854;2022-12-07T08:26:10;561.40;;;45.93;;
46729;SDS011;32476;50.002;11.854;2022-12-07T08:28:38;573.50;;;48.87;;
46729;SDS011;32476;50.002;11.854;2022-12-07T08:31:06;308.87;;;30.53;;
46729;SDS011;32476;50.002;11.854;2022-12-07T08:33:41;140.53;;;20.33;;
46729;SDS011;32476;50.002;11.854;2022-12-07T08:36:09;294.60;;;27.87;;
46729;SDS011;32476;50.002;11.854;2022-12-07T08:38:37;235.23;;;25.67;;
46729;SDS011;32476;50.002;11.854;2022-12-07T08:41:06;86.33;;;17.23;;
46729;SDS011;32476;50.002;11.854;2022-12-07T08:43:33;29.90;;;12.17;;
46729;SDS011;32476;50.002;11.854;2022-12-07T08:48:33;20.03;;;10.63;;
46729;SDS011;32476;50.002;11.854;2022-12-07T08:51:04;23.17;;;10.63;;
46729;SDS011;32476;50.002;11.854;2022-12-07T08:53:30;22.93;;;10.50;;
46729;SDS011;32476;50.002;11.854;2022-12-07T08:56:01;34.00;;;12.27;;
46729;SDS011;32476;50.002;11.854;2022-12-07T08:58:27;87.53;;;15.53;;
46729;SDS011;32476;50.002;11.854;2022-12-07T09:00:53;63.93;;;14.30;;
46729;SDS011;32476;50.002;11.854;2022-12-07T09:03:20;200.10;;;22.00;;
46729;SDS011;32476;50.002;11.854;2022-12-07T09:05:46;81.90;;;15.30;;
46729;SDS011;32476;50.002;11.854;2022-12-07T09:08:13;308.10;;;27.77;;
46729;SDS011;32476;50.002;11.854;2022-12-07T09:10:41;200.83;;;25.00;;
46729;SDS011;32476;50.002;11.854;2022-12-07T09:13:07;195.30;;;24.23;;
46729;SDS011;32476;50.002;11.854;2022-12-07T09:15:33;196.93;;;22.57;;
46729;SDS011;32476;50.002;11.854;2022-12-07T09:18:00;371.63;;;33.70;;
46729;SDS011;32476;50.002;11.854;2022-12-07T09:20:26;323.23;;;32.20;;
46729;SDS011;32476;50.002;11.854;2022-12-07T09:22:52;386.73;;;36.53;;
46729;SDS011;32476;50.002;11.854;2022-12-07T09:25:20;205.90;;;29.30;;
46729;SDS011;32476;50.002;11.854;2022-12-07T09:27:46;444.23;;;43.80;;
46729;SDS011;32476;50.002;11.854;2022-12-07T09:30:11;408.53;;;42.27;;
46729;SDS011;32476;50.002;11.854;2022-12-07T09:32:40;242.90;;;25.03;;
46729;SDS011;32476;50.002;11.854;2022-12-07T09:35:06;427.53;;;33.73;;
46729;SDS011;32476;50.002;11.854;2022-12-07T09:37:32;290.53;;;26.07;;
46729;SDS011;32476;50.002;11.854;2022-12-07T09:40:03;196.63;;;23.33;;
46729;SDS011;32476;50.002;11.854;2022-12-07T09:42:34;432.87;;;37.03;;
46729;SDS011;32476;50.002;11.854;2022-12-07T09:45:29;377.50;;;33.60;;
46729;SDS011;32476;50.002;11.854;2022-12-07T09:47:58;395.77;;;35.13;;
46729;SDS011;32476;50.002;11.854;2022-12-07T09:50:27;286.33;;;25.47;;
46729;SDS011;32476;50.002;11.854;2022-12-07T09:52:55;210.57;;;22.70;;
46729;SDS011;32476;50.002;11.854;2022-12-07T09:55:34;286.13;;;26.43;;
46729;SDS011;32476;50.002;11.854;2022-12-07T09:58:03;372.13;;;34.97;;
46729;SDS011;32476;50.002;11.854;2022-12-07T10:00:29;401.20;;;34.27;;
46729;SDS011;32476;50.002;11.854;2022-12-07T10:02:58;636.63;;;54.43;;
46729;SDS011;32476;50.002;11.854;2022-12-07T10:05:27;575.50;;;48.27;;
46729;SDS011;32476;50.002;11.854;2022-12-07T10:07:59;520.37;;;40.93;;
46729;SDS011;32476;50.002;11.854;2022-12-07T10:10:32;425.87;;;33.37;;
46729;SDS011;32476;50.002;11.854;2022-12-07T10:13:09;748.63;;;64.07;;
46729;SDS011;32476;50.002;11.854;2022-12-07T10:15:45;400.37;;;32.53;;
46729;SDS011;32476;50.002;11.854;2022-12-07T10:18:25;374.53;;;32.87;;
46729;SDS011;32476;50.002;11.854;2022-12-07T10:21:14;888.80;;;67.47;;
46729;SDS011;32476;50.002;11.854;2022-12-07T10:26:38;408.13;;;36.40;;
46729;SDS011;32476;50.002;11.854;2022-12-07T10:29:23;402.80;;;36.63;;
46729;SDS011;32476;50.002;11.854;2022-12-07T10:32:21;549.40;;;43.20;;
46729;SDS011;32476;50.002;11.854;2022-12-07T10:37:45;542.40;;;44.33;;
46729;SDS011;32476;50.002;11.854;2022-12-07T10:40:33;510.60;;;39.53;;
46729;SDS011;32476;50.002;11.854;2022-12-07T10:43:05;549.40;;;43.83;;
46729;SDS011;32476;50.002;11.854;2022-12-07T10:48:46;281.17;;;28.00;;
46729;SDS011;32476;50.002;11.854;2022-12-07T10:51:27;41.07;;;11.67;;
46729;SDS011;32476;50.002;11.854;2022-12-07T10:56:48;20.17;;;10.77;;
46729;SDS011;32476;50.002;11.854;2022-12-07T11:08:09;159.73;;;19.20;;
46729;SDS011;32476;50.002;11.854;2022-12-07T11:13:47;269.00;;;26.47;;
46729;SDS011;32476;50.002;11.854;2022-12-07T11:19:41;65.27;;;13.40;;
46729;SDS011;32476;50.002;11.854;2022-12-07T11:37:23;15.80;;;7.90;;
46729;SDS011;32476;50.002;11.854;2022-12-07T11:40:00;13.03;;;7.33;;
46729;SDS011;32476;50.002;11.854;2022-12-07T11:42:37;11.80;;;7.00;;
46729;SDS011;32476;50.002;11.854;2022-12-07T11:45:15;14.13;;;7.03;;
46729;SDS011;32476;50.002;11.854;2022-12-07T11:48:04;11.57;;;6.23;;
46729;SDS011;32476;50.002;11.854;2022-12-07T11:50:42;12.43;;;7.03;;
46729;SDS011;32476;50.002;11.854;2022-12-07T11:53:18;14.57;;;7.77;;
46729;SDS011;32476;50.002;11.854;2022-12-07T12:01:26;12.43;;;7.80;;
46729;SDS011;32476;50.002;11.854;2022-12-07T12:04:07;12.67;;;8.30;;
46729;SDS011;32476;50.002;11.854;2022-12-07T12:06:53;10.90;;;7.07;;
46729;SDS011;32476;50.002;11.854;2022-12-07T12:09:34;16.20;;;7.43;;
46729;SDS011;32476;50.002;11.854;2022-12-07T12:15:18;16.83;;;8.73;;
46729;SDS011;32476;50.002;11.854;2022-12-07T12:18:27;11.47;;;7.30;;
46729;SDS011;32476;50.002;11.854;2022-12-07T12:21:45;14.00;;;6.30;;
46729;SDS011;32476;50.002;11.854;2022-12-07T12:24:14;11.83;;;6.87;;
46729;SDS011;32476;50.002;11.854;2022-12-07T12:26:50;11.83;;;6.70;;
46729;SDS011;32476;50.002;11.854;2022-12-07T12:32:13;10.60;;;6.20;;
46729;SDS011;32476;50.002;11.854;2022-12-07T12:42:44;11.47;;;6.87;;
46729;SDS011;32476;50.002;11.854;2022-12-07T12:45:29;11.90;;;6.47;;
46729;SDS011;32476;50.002;11.854;2022-12-07T12:54:10;9.97;;;5.83;;
46729;SDS011;32476;50.002;11.854;2022-12-07T12:56:48;8.70;;;5.70;;
46729;SDS011;32476;50.002;11.854;2022-12-07T12:59:31;9.70;;;6.13;;
46729;SDS011;32476;50.002;11.854;2022-12-07T13:02:46;10.77;;;6.10;;
46729;SDS011;32476;50.002;11.854;2022-12-07T13:04:53;12.40;;;5.97;;
46729;SDS011;32476;50.002;11.854;2022-12-07T13:12:58;9.23;;;6.13;;
46729;SDS011;32476;50.002;11.854;2022-12-07T13:20:56;11.60;;;6.60;;
46729;SDS011;32476;50.002;11.854;2022-12-07T13:23:38;11.73;;;7.20;;
46729;SDS011;32476;50.002;11.854;2022-12-07T13:31:56;10.03;;;6.03;;
46729;SDS011;32476;50.002;11.854;2022-12-07T13:37:00;11.60;;;6.53;;
46729;SDS011;32476;50.002;11.854;2022-12-07T13:39:33;12.33;;;6.93;;
46729;SDS011;32476;50.002;11.854;2022-12-07T13:42:07;11.17;;;7.00;;
46729;SDS011;32476;50.002;11.854;2022-12-07T13:44:51;12.67;;;6.97;;
46729;SDS011;32476;50.002;11.854;2022-12-07T13:47:30;8.07;;;5.53;;
46729;SDS011;32476;50.002;11.854;2022-12-07T13:50:29;11.23;;;6.87;;
46729;SDS011;32476;50.002;11.854;2022-12-07T13:53:00;13.87;;;7.70;;
46729;SDS011;32476;50.002;11.854;2022-12-07T13:55:27;11.97;;;6.47;;
46729;SDS011;32476;50.002;11.854;2022-12-07T13:57:55;13.40;;;6.73;;
46729;SDS011;32476;50.002;11.854;2022-12-07T14:00:26;11.63;;;6.77;;
46729;SDS011;32476;50.002;11.854;2022-12-07T14:05:25;12.30;;;6.93;;
46729;SDS011;32476;50.002;11.854;2022-12-07T14:07:58;11.93;;;7.50;;
46729;SDS011;32476;50.002;11.854;2022-12-07T14:18:57;10.63;;;7.17;;
46729;SDS011;32476;50.002;11.854;2022-12-07T14:21:26;11.60;;;7.07;;
46729;SDS011;32476;50.002;11.854;2022-12-07T14:26:44;11.90;;;7.90;;
46729;SDS011;32476;50.002;11.854;2022-12-07T14:29:22;12.93;;;7.60;;
46729;SDS011;32476;50.002;11.854;2022-12-07T14:31:59;12.37;;;7.60;;
46729;SDS011;32476;50.002;11.854;2022-12-07T14:34:56;12.70;;;7.10;;
46729;SDS011;32476;50.002;11.854;2022-12-07T14:37:35;11.77;;;7.27;;
46729;SDS011;32476;50.002;11.854;2022-12-07T14:40:04;13.60;;;7.90;;
46729;SDS011;32476;50.002;11.854;2022-12-07T14:42:32;11.43;;;7.03;;
46729;SDS011;32476;50.002;11.854;2022-12-07T14:44:59;11.30;;;7.03;;
46729;SDS011;32476;50.002;11.854;2022-12-07T14:47:27;13.27;;;7.73;;
46729;SDS011;32476;50.002;11.854;2022-12-07T14:49:53;17.50;;;7.67;;
46729;SDS011;32476;50.002;11.854;2022-12-07T14:52:20;11.30;;;7.47;;
46729;SDS011;32476;50.002;11.854;2022-12-07T14:54:54;11.70;;;7.50;;
46729;SDS011;32476;50.002;11.854;2022-12-07T14:57:21;10.57;;;7.47;;
46729;SDS011;32476;50.002;11.854;2022-12-07T14:59:48;13.27;;;8.17;;
46729;SDS011;32476;50.002;11.854;2022-12-07T15:02:16;14.73;;;8.10;;
46729;SDS011;32476;50.002;11.854;2022-12-07T15:04:42;13.43;;;8.40;;
46729;SDS011;32476;50.002;11.854;2022-12-07T15:07:15;12.47;;;8.07;;
46729;SDS011;32476;50.002;11.854;2022-12-07T15:09:47;10.50;;;7.27;;
46729;SDS011;32476;50.002;11.854;2022-12-07T15:12:13;12.93;;;7.47;;
46729;SDS011;32476;50.002;11.854;2022-12-07T15:14:39;12.83;;;7.63;;
46729;SDS011;32476;50.002;11.854;2022-12-07T15:17:09;13.67;;;8.13;;
46729;SDS011;32476;50.002;11.854;2022-12-07T15:19:37;13.77;;;8.13;;
46729;SDS011;32476;50.002;11.854;2022-12-07T15:22:03;12.57;;;8.33;;
46729;SDS011;32476;50.002;11.854;2022-12-07T15:24:31;15.10;;;8.40;;
46729;SDS011;32476;50.002;11.854;2022-12-07T15:26:59;12.43;;;7.23;;
46729;SDS011;32476;50.002;11.854;2022-12-07T15:29:25;11.10;;;6.90;;
46729;SDS011;32476;50.002;11.854;2022-12-07T15:31:53;9.47;;;6.43;;
46729;SDS011;32476;50.002;11.854;2022-12-07T15:34:19;12.37;;;7.63;;
46729;SDS011;32476;50.002;11.854;2022-12-07T15:36:45;11.43;;;6.83;;
46729;SDS011;32476;50.002;11.854;2022-12-07T15:39:13;7.63;;;5.27;;
46729;SDS011;32476;50.002;11.854;2022-12-07T15:41:39;9.00;;;5.20;;
46729;SDS011;32476;50.002;11.854;2022-12-07T15:44:05;7.90;;;4.80;;
46729;SDS011;32476;50.002;11.854;2022-12-07T15:46:51;7.53;;;4.73;;
46729;SDS011;32476;50.002;11.854;2022-12-07T15:49:18;6.70;;;4.27;;
46729;SDS011;32476;50.002;11.854;2022-12-07T15:51:45;5.27;;;3.70;;
46729;SDS011;32476;50.002;11.854;2022-12-07T15:54:23;6.37;;;4.10;;
46729;SDS011;32476;50.002;11.854;2022-12-07T15:56:52;7.63;;;4.70;;
46729;SDS011;32476;50.002;11.854;2022-12-07T15:59:21;7.53;;;5.00;;
46729;SDS011;32476;50.002;11.854;2022-12-07T16:01:47;8.53;;;5.37;;
46729;SDS011;32476;50.002;11.854;2022-12-07T16:04:13;7.70;;;5.30;;
46729;SDS011;32476;50.002;11.854;2022-12-07T16:06:40;9.93;;;5.63;;
46729;SDS011;32476;50.002;11.854;2022-12-07T16:09:06;11.83;;;6.27;;
46729;SDS011;32476;50.002;11.854;2022-12-07T16:11:33;11.03;;;6.73;;
46729;SDS011;32476;50.002;11.854;2022-12-07T16:14:01;11.73;;;7.63;;
46729;SDS011;32476;50.002;11.854;2022-12-07T16:16:27;11.27;;;6.37;;
46729;SDS011;32476;50.002;11.854;2022-12-07T16:18:53;12.07;;;7.57;;
46729;SDS011;32476;50.002;11.854;2022-12-07T16:21:22;11.20;;;6.63;;
46729;SDS011;32476;50.002;11.854;2022-12-07T16:23:48;12.70;;;7.00;;
46729;SDS011;32476;50.002;11.854;2022-12-07T16:26:15;11.17;;;7.37;;
46729;SDS011;32476;50.002;11.854;2022-12-07T16:28:48;11.43;;;6.83;;
46729;SDS011;32476;50.002;11.854;2022-12-07T16:31:16;11.87;;;7.17;;
46729;SDS011;32476;50.002;11.854;2022-12-07T16:33:47;13.80;;;7.73;;
46729;SDS011;32476;50.002;11.854;2022-12-07T16:36:14;13.77;;;7.60;;
46729;SDS011;32476;50.002;11.854;2022-12-07T16:38:42;14.63;;;8.30;;
46729;SDS011;32476;50.002;11.854;2022-12-07T16:41:10;13.70;;;8.30;;
46729;SDS011;32476;50.002;11.854;2022-12-07T16:43:36;13.77;;;7.80;;
46729;SDS011;32476;50.002;11.854;2022-12-07T16:46:03;11.17;;;7.20;;
46729;SDS011;32476;50.002;11.854;2022-12-07T16:48:31;11.03;;;7.43;;
46729;SDS011;32476;50.002;11.854;2022-12-07T16:51:02;16.70;;;8.30;;
46729;SDS011;32476;50.002;11.854;2022-12-07T16:53:32;11.87;;;7.83;;
46729;SDS011;32476;50.002;11.854;2022-12-07T16:55:58;13.90;;;8.23;;
46729;SDS011;32476;50.002;11.854;2022-12-07T16:58:24;14.70;;;7.83;;
46729;SDS011;32476;50.002;11.854;2022-12-07T17:00:51;15.40;;;7.93;;
46729;SDS011;32476;50.002;11.854;2022-12-07T17:03:17;15.07;;;7.93;;